createdAt,value
2019-06-20T00:04:31.340Z,21.88
2019-06-20T00:09:31.609Z,21.83
2019-06-20T00:14:34.054Z,21.48
2019-06-20T00:19:36.533Z,21.24
2019-06-20T00:24:39.004Z,21.06
2019-06-20T00:29:41.454Z,21.15
2019-06-20T00:34:43.914Z,21.81
2019-06-20T00:39:46.442Z,21.47
2019-06-20T00:44:48.895Z,21.34
2019-06-20T00:49:51.356Z,21.52
2019-06-20T00:54:53.830Z,21.56
2019-06-20T00:59:56.287Z,21.43
2019-06-20T01:04:58.738Z,21.51
2019-06-20T01:10:01.294Z,21.44
2019-06-20T01:15:03.677Z,21.43
2019-06-20T01:20:06.142Z,21.18
2019-06-20T01:25:08.617Z,21.17
2019-06-20T01:30:11.073Z,21.25
2019-06-20T01:35:13.527Z,21.13
2019-06-20T01:40:15.984Z,21.08
2019-06-20T01:45:18.458Z,21.16
2019-06-20T01:50:20.915Z,21.14
2019-06-20T01:55:23.379Z,21.21
2019-06-20T02:00:34.857Z,21.14
2019-06-20T02:05:37.325Z,21.15
2019-06-20T02:10:39.781Z,21.14
2019-06-20T02:15:42.238Z,21.05
2019-06-20T02:20:53.768Z,20.94
2019-06-20T02:25:56.220Z,21.05
2019-06-20T02:30:58.681Z,21.24
2019-06-20T02:36:01.372Z,21.34
2019-06-20T02:41:03.856Z,21.33
2019-06-20T02:46:06.306Z,21.33
2019-06-20T02:51:08.773Z,21.29
2019-06-20T02:56:11.233Z,21.44
2019-06-20T03:01:13.698Z,21.55
2019-06-20T03:06:16.162Z,21.59
2019-06-20T03:11:18.620Z,21.69
2019-06-20T03:16:21.059Z,21.73
2019-06-20T03:21:23.535Z,21.65
2019-06-20T03:26:26.011Z,21.52
2019-06-20T03:31:28.471Z,21.46
2019-06-20T03:36:30.936Z,21.33
2019-06-20T03:41:33.390Z,21.56
2019-06-20T03:46:35.846Z,21.46
2019-06-20T03:51:38.305Z,21.48
2019-06-20T03:56:40.758Z,21.48
2019-06-20T04:01:43.264Z,21.49
2019-06-20T04:06:45.730Z,21.90
2019-06-20T04:11:48.197Z,22.30
2019-06-20T04:16:50.724Z,22.38
2019-06-20T04:21:53.142Z,22.38
2019-06-20T04:26:55.655Z,22.59
2019-06-20T04:31:58.061Z,23.07
2019-06-20T04:37:00.554Z,23.24
2019-06-20T04:42:03.033Z,23.23
2019-06-20T04:47:08.320Z,23.09
2019-06-20T04:52:10.835Z,23.18
2019-06-20T04:57:13.331Z,23.18
2019-06-20T05:02:15.806Z,23.38
2019-06-20T05:07:18.477Z,23.73
2019-06-20T05:12:22.294Z,24.08
2019-06-20T05:17:23.373Z,24.57
2019-06-20T05:22:25.817Z,24.95
2019-06-20T05:27:28.285Z,25.12
2019-06-20T05:32:30.741Z,24.81
2019-06-20T05:37:33.261Z,25.40
2019-06-20T05:42:36.582Z,25.35
2019-06-20T05:47:39.039Z,26.10
2019-06-20T05:52:41.494Z,26.51
2019-06-20T05:57:43.956Z,28.03
2019-06-20T06:02:46.511Z,30.98
2019-06-20T06:07:48.969Z,33.03
2019-06-20T06:12:51.425Z,33.68
2019-06-20T06:17:53.883Z,34.28
2019-06-20T06:22:56.353Z,33.24
2019-06-20T06:27:58.819Z,34.04
2019-06-20T06:33:01.264Z,33.34
2019-06-20T06:38:03.732Z,32.41
2019-06-20T06:43:06.210Z,31.67
2019-06-20T06:48:08.665Z,31.73
2019-06-20T06:53:11.135Z,31.02
2019-06-20T06:58:13.607Z,31.86
2019-06-20T07:03:16.353Z,31.00
2019-06-20T07:08:18.804Z,30.66
2019-06-20T07:13:21.282Z,30.55
2019-06-20T07:18:23.763Z,30.51
2019-06-20T07:23:26.198Z,29.83
2019-06-20T07:28:28.657Z,29.68
2019-06-20T07:33:31.112Z,29.13
2019-06-20T07:38:33.599Z,29.52
2019-06-20T07:43:36.060Z,30.61
2019-06-20T07:48:38.539Z,32.00
2019-06-20T07:53:41.020Z,33.01
2019-06-20T07:58:43.504Z,32.65
2019-06-20T08:03:45.969Z,33.14
2019-06-20T08:08:48.458Z,33.79
2019-06-20T08:13:50.901Z,35.37
2019-06-20T08:18:53.391Z,35.51
2019-06-20T08:23:55.851Z,35.94
2019-06-20T08:29:10.436Z,37.44
2019-06-20T08:34:02.165Z,38.49
2019-06-20T08:39:04.248Z,37.14
2019-06-20T08:44:06.148Z,37.21
2019-06-20T08:49:08.255Z,38.13
2019-06-20T08:54:10.711Z,41.58
2019-06-20T08:59:23.852Z,51.48
2019-06-20T09:04:15.662Z,57.77
2019-06-20T09:09:18.117Z,63.46
2019-06-20T09:14:20.575Z,65.66
2019-06-20T09:19:23.027Z,52.63
2019-06-20T09:24:25.666Z,65.01
2019-06-20T09:29:40.867Z,50.46
2019-06-20T09:34:30.595Z,55.13
2019-06-20T09:39:33.072Z,63.30
2019-06-20T09:44:35.537Z,63.55
2019-06-20T09:49:38.024Z,49.03
2019-06-20T09:54:40.486Z,42.19
2019-06-20T09:59:56.140Z,47.13
2019-06-20T10:04:46.081Z,40.75
2019-06-20T10:09:48.227Z,40.03
2019-06-20T10:14:51.484Z,39.02
2019-06-20T10:19:54.055Z,36.35
2019-06-20T10:24:55.431Z,37.40
2019-06-20T10:30:13.206Z,40.16
2019-06-20T10:35:00.425Z,41.25
2019-06-20T10:40:02.855Z,40.26
2019-06-20T10:45:05.339Z,38.73
2019-06-20T10:50:07.808Z,38.00
2019-06-20T10:55:10.269Z,37.62
2019-06-20T11:00:12.735Z,35.84
2019-06-20T11:05:15.311Z,34.82
2019-06-20T11:10:17.787Z,33.43
2019-06-20T11:15:20.264Z,32.34
2019-06-20T11:20:22.762Z,31.74
2019-06-20T11:25:25.256Z,31.46
2019-06-20T11:30:27.725Z,30.86
2019-06-20T11:35:30.200Z,30.60
2019-06-20T11:40:32.658Z,30.40
2019-06-20T11:45:36.052Z,30.48
2019-06-20T11:50:37.922Z,30.68
2019-06-20T11:55:40.058Z,31.23
2019-06-20T12:00:42.529Z,32.34
2019-06-20T12:05:44.983Z,34.99
2019-06-20T12:10:47.456Z,34.57
2019-06-20T12:15:49.906Z,33.69
2019-06-20T12:20:52.394Z,33.19
2019-06-20T12:25:54.875Z,33.41
2019-06-20T12:30:57.376Z,32.94
2019-06-20T12:35:59.823Z,32.70
2019-06-20T12:41:02.289Z,32.46
2019-06-20T12:46:04.906Z,32.14
2019-06-20T12:51:07.389Z,31.87
2019-06-20T12:56:09.872Z,31.63
2019-06-20T13:01:12.362Z,31.46
2019-06-20T13:06:14.809Z,31.41
2019-06-20T13:11:17.310Z,31.08
2019-06-20T13:16:19.766Z,31.11
2019-06-20T13:21:22.226Z,31.53
2019-06-20T13:26:24.741Z,32.45
2019-06-20T13:31:27.202Z,33.39
2019-06-20T13:36:29.707Z,33.35
2019-06-20T13:41:32.162Z,33.29
2019-06-20T13:46:34.615Z,33.12
2019-06-20T13:51:37.086Z,32.81
2019-06-20T13:56:39.552Z,32.66
2019-06-20T14:01:43.556Z,32.46
2019-06-20T14:06:45.496Z,31.97
2019-06-20T14:11:47.303Z,31.25
2019-06-20T14:16:50.758Z,30.70
2019-06-20T14:21:51.905Z,30.36
2019-06-20T14:26:54.632Z,30.16
2019-06-20T14:31:56.867Z,30.22
2019-06-20T14:36:59.320Z,30.44
2019-06-20T14:42:01.799Z,30.40
2019-06-20T14:47:04.267Z,30.43
2019-06-20T14:52:06.729Z,30.22
2019-06-20T14:57:09.180Z,29.97
2019-06-20T15:02:11.664Z,30.18
2019-06-20T15:07:14.141Z,30.66
2019-06-20T15:12:16.614Z,30.36
2019-06-20T15:17:19.075Z,30.05
2019-06-20T15:22:21.554Z,30.44
2019-06-20T15:27:24.034Z,31.72
2019-06-20T15:32:26.580Z,31.96
2019-06-20T15:37:29.939Z,31.02
2019-06-20T15:42:32.400Z,30.49
2019-06-20T15:47:34.894Z,29.78
2019-06-20T15:52:37.386Z,29.45
2019-06-20T15:57:39.849Z,28.93
2019-06-20T16:02:42.321Z,29.53
2019-06-20T16:07:44.788Z,29.27
2019-06-20T16:12:47.274Z,28.95
2019-06-20T16:17:49.738Z,29.03
2019-06-20T16:22:52.212Z,28.75
2019-06-20T16:27:54.688Z,29.33
2019-06-20T16:32:57.198Z,29.42
2019-06-20T16:37:59.657Z,29.07
2019-06-20T16:43:02.121Z,28.68
2019-06-20T16:48:04.608Z,28.46
2019-06-20T16:53:07.059Z,28.25
2019-06-20T16:58:09.585Z,28.12
2019-06-20T17:03:12.038Z,28.05
2019-06-20T17:08:14.511Z,27.87
2019-06-20T17:13:17.003Z,27.90
2019-06-20T17:18:19.484Z,27.79
2019-06-20T17:23:21.963Z,27.69
2019-06-20T17:28:24.428Z,27.66
2019-06-20T17:33:26.915Z,27.86
2019-06-20T17:38:29.389Z,28.10
2019-06-20T17:43:31.862Z,27.99
2019-06-20T17:48:34.351Z,27.71
2019-06-20T17:53:36.832Z,27.45
2019-06-20T17:58:39.307Z,27.10
2019-06-20T18:03:41.763Z,27.08
2019-06-20T18:08:44.253Z,26.99
2019-06-20T18:13:46.750Z,26.80
2019-06-20T18:18:49.236Z,26.73
2019-06-20T18:23:51.731Z,26.73
2019-06-20T18:28:54.202Z,26.56
2019-06-20T18:33:56.681Z,26.46
2019-06-20T18:38:59.154Z,26.28
2019-06-20T18:44:01.641Z,26.17
2019-06-20T18:49:04.116Z,25.99
2019-06-20T18:54:06.598Z,25.77
2019-06-20T18:59:09.055Z,25.66
2019-06-20T19:04:11.552Z,25.55
2019-06-20T19:09:14.005Z,25.47
2019-06-20T19:14:16.453Z,25.32
2019-06-20T19:19:20.891Z,25.16
2019-06-20T19:24:21.410Z,24.95
2019-06-20T19:29:23.868Z,24.75
2019-06-20T19:34:26.331Z,24.63
2019-06-20T19:39:28.813Z,24.55
2019-06-20T19:44:31.282Z,24.44
2019-06-20T19:49:33.769Z,24.41
2019-06-20T19:54:36.350Z,24.33
2019-06-20T19:59:38.798Z,24.41
2019-06-20T20:04:41.279Z,24.38
2019-06-20T20:09:43.744Z,24.48
2019-06-20T20:14:46.206Z,24.50
2019-06-20T20:19:48.683Z,24.36
2019-06-20T20:24:51.151Z,24.29
2019-06-20T20:29:53.615Z,24.23
2019-06-20T20:34:56.100Z,24.27
2019-06-20T20:39:58.592Z,24.16
2019-06-20T20:45:01.020Z,24.10
2019-06-20T20:50:03.484Z,24.03
2019-06-20T20:55:06.023Z,24.14
2019-06-20T21:00:08.495Z,24.14
2019-06-20T21:05:10.962Z,24.14
2019-06-20T21:10:13.435Z,24.08
2019-06-20T21:15:15.897Z,23.94
2019-06-20T21:20:18.397Z,23.71
2019-06-20T21:25:20.840Z,23.44
2019-06-20T21:30:23.319Z,23.34
2019-06-20T21:35:25.794Z,23.11
2019-06-20T21:40:28.276Z,22.94
2019-06-20T21:45:30.739Z,22.86
2019-06-20T21:50:33.198Z,22.83
2019-06-20T21:55:35.670Z,22.60
2019-06-20T22:00:38.146Z,22.42
2019-06-20T22:05:40.666Z,22.34
2019-06-20T22:10:43.215Z,22.25
2019-06-20T22:15:45.838Z,22.16
2019-06-20T22:20:48.158Z,21.98
2019-06-20T22:25:50.660Z,21.94
2019-06-20T22:30:53.102Z,21.89
2019-06-20T22:35:55.756Z,21.76
2019-06-20T22:40:58.282Z,21.79
2019-06-20T22:46:00.732Z,21.89
2019-06-20T22:51:03.211Z,21.93
2019-06-20T22:56:05.707Z,21.72
2019-06-20T23:01:08.204Z,21.78
2019-06-20T23:06:10.700Z,21.84
2019-06-20T23:11:13.214Z,21.81
2019-06-20T23:16:15.679Z,21.60
2019-06-20T23:21:18.125Z,21.33
2019-06-20T23:26:20.579Z,21.46
2019-06-20T23:31:23.070Z,21.38
2019-06-20T23:36:25.526Z,21.20
2019-06-20T23:41:28.003Z,21.26
2019-06-20T23:46:30.474Z,21.43
2019-06-20T23:51:32.934Z,21.55
2019-06-20T23:56:35.393Z,21.56
